Anderson, South Carolina
Current Conditions -  °F | °C
As of 3:12 AM on Monday 24 Nov 2014 (Local Time) from KAND Reporting Station
Overcast Overcast  
Wind Chill: 58°   Ceiling: 2700
Heat Index: 58°   Visibility: 10mi
Dew Point: 56°   Wind: 8mph
Humidity: 93%   Direction: 210°SSW
Pressure: 29.78"   Gusts: NA
Location:  34.5°N, 82.65°W
Report Text: KAND 240812Z AUTO 21007KT 10SM OVC027 14/13 A2978 RMK AO2 T01440133
Loading
Personal Weather Stations






























Interactive Weather Map New forecast layout! Learn more

10-Day Weather Forecast

Advertisements
Track Severe Weather on mobile